sensor_id;sensor_type;location;lat;lon;timestamp;P1;durP1;ratioP1;P2;durP2;ratioP2
85734;SDS011;76179;42.316;22.856;2024-02-04T00:02:01;14.23;;;8.52;;
85734;SDS011;76179;42.316;22.856;2024-02-04T00:04:28;16.02;;;11.18;;
85734;SDS011;76179;42.316;22.856;2024-02-04T00:06:54;20.25;;;12.02;;
85734;SDS011;76179;42.316;22.856;2024-02-04T00:09:19;17.13;;;9.30;;
85734;SDS011;76179;42.316;22.856;2024-02-04T00:11:45;14.52;;;8.80;;
85734;SDS011;76179;42.316;22.856;2024-02-04T00:14:11;14.65;;;8.77;;
85734;SDS011;76179;42.316;22.856;2024-02-04T00:16:36;13.35;;;8.48;;
85734;SDS011;76179;42.316;22.856;2024-02-04T00:19:02;14.73;;;9.07;;
85734;SDS011;76179;42.316;22.856;2024-02-04T00:21:27;21.13;;;8.50;;
85734;SDS011;76179;42.316;22.856;2024-02-04T00:23:52;13.88;;;8.45;;
85734;SDS011;76179;42.316;22.856;2024-02-04T00:26:18;16.08;;;7.82;;
85734;SDS011;76179;42.316;22.856;2024-02-04T00:28:43;13.68;;;8.13;;
85734;SDS011;76179;42.316;22.856;2024-02-04T00:31:08;13.88;;;7.70;;
85734;SDS011;76179;42.316;22.856;2024-02-04T00:33:34;12.80;;;7.40;;
85734;SDS011;76179;42.316;22.856;2024-02-04T00:35:59;12.75;;;7.55;;
85734;SDS011;76179;42.316;22.856;2024-02-04T00:38:25;15.90;;;8.88;;
85734;SDS011;76179;42.316;22.856;2024-02-04T00:40:50;16.67;;;9.05;;
85734;SDS011;76179;42.316;22.856;2024-02-04T00:43:17;11.43;;;7.10;;
85734;SDS011;76179;42.316;22.856;2024-02-04T00:45:43;13.55;;;9.07;;
85734;SDS011;76179;42.316;22.856;2024-02-04T00:48:08;15.05;;;9.50;;
85734;SDS011;76179;42.316;22.856;2024-02-04T00:50:33;15.00;;;9.65;;
85734;SDS011;76179;42.316;22.856;2024-02-04T00:52:59;13.30;;;7.72;;
85734;SDS011;76179;42.316;22.856;2024-02-04T00:55:24;14.07;;;8.13;;
85734;SDS011;76179;42.316;22.856;2024-02-04T00:57:49;15.80;;;8.50;;
85734;SDS011;76179;42.316;22.856;2024-02-04T01:00:15;13.98;;;7.47;;
85734;SDS011;76179;42.316;22.856;2024-02-04T01:02:41;16.52;;;8.13;;
85734;SDS011;76179;42.316;22.856;2024-02-04T01:05:06;13.90;;;7.75;;
85734;SDS011;76179;42.316;22.856;2024-02-04T01:07:32;16.05;;;8.43;;
85734;SDS011;76179;42.316;22.856;2024-02-04T01:09:58;15.25;;;9.85;;
85734;SDS011;76179;42.316;22.856;2024-02-04T01:12:23;15.95;;;9.57;;
85734;SDS011;76179;42.316;22.856;2024-02-04T01:14:49;15.32;;;9.82;;
85734;SDS011;76179;42.316;22.856;2024-02-04T01:17:14;14.25;;;9.88;;
85734;SDS011;76179;42.316;22.856;2024-02-04T01:19:39;12.02;;;8.30;;
85734;SDS011;76179;42.316;22.856;2024-02-04T01:22:05;15.57;;;9.80;;
85734;SDS011;76179;42.316;22.856;2024-02-04T01:24:31;13.27;;;8.63;;
85734;SDS011;76179;42.316;22.856;2024-02-04T01:26:56;13.55;;;8.23;;
85734;SDS011;76179;42.316;22.856;2024-02-04T01:29:22;15.68;;;8.73;;
85734;SDS011;76179;42.316;22.856;2024-02-04T01:31:47;12.73;;;8.45;;
85734;SDS011;76179;42.316;22.856;2024-02-04T01:34:12;11.40;;;7.60;;
85734;SDS011;76179;42.316;22.856;2024-02-04T01:36:38;12.95;;;8.35;;
85734;SDS011;76179;42.316;22.856;2024-02-04T01:39:03;12.90;;;9.43;;
85734;SDS011;76179;42.316;22.856;2024-02-04T01:41:30;15.60;;;7.57;;
85734;SDS011;76179;42.316;22.856;2024-02-04T01:43:55;12.40;;;8.20;;
85734;SDS011;76179;42.316;22.856;2024-02-04T01:46:21;13.70;;;7.63;;
85734;SDS011;76179;42.316;22.856;2024-02-04T01:48:47;13.80;;;8.68;;
85734;SDS011;76179;42.316;22.856;2024-02-04T01:51:13;15.60;;;8.55;;
85734;SDS011;76179;42.316;22.856;2024-02-04T01:53:41;14.43;;;7.80;;
85734;SDS011;76179;42.316;22.856;2024-02-04T01:56:10;14.48;;;8.18;;
85734;SDS011;76179;42.316;22.856;2024-02-04T01:58:37;16.20;;;9.60;;
85734;SDS011;76179;42.316;22.856;2024-02-04T02:01:03;17.67;;;10.85;;
85734;SDS011;76179;42.316;22.856;2024-02-04T02:03:29;16.45;;;8.80;;
85734;SDS011;76179;42.316;22.856;2024-02-04T02:05:56;22.85;;;11.88;;
85734;SDS011;76179;42.316;22.856;2024-02-04T02:08:23;18.83;;;12.80;;
85734;SDS011;76179;42.316;22.856;2024-02-04T02:10:48;14.60;;;10.05;;
85734;SDS011;76179;42.316;22.856;2024-02-04T02:13:22;16.80;;;10.30;;
85734;SDS011;76179;42.316;22.856;2024-02-04T02:15:52;16.15;;;10.02;;
85734;SDS011;76179;42.316;22.856;2024-02-04T02:18:29;18.08;;;11.27;;
85734;SDS011;76179;42.316;22.856;2024-02-04T02:26:39;18.70;;;10.48;;
85734;SDS011;76179;42.316;22.856;2024-02-04T02:29:05;19.23;;;11.27;;
85734;SDS011;76179;42.316;22.856;2024-02-04T02:31:33;16.80;;;10.07;;
85734;SDS011;76179;42.316;22.856;2024-02-04T02:33:59;19.15;;;9.90;;
85734;SDS011;76179;42.316;22.856;2024-02-04T02:36:25;20.67;;;10.57;;
85734;SDS011;76179;42.316;22.856;2024-02-04T02:41:35;17.77;;;9.95;;
85734;SDS011;76179;42.316;22.856;2024-02-04T02:44:01;19.05;;;11.57;;
85734;SDS011;76179;42.316;22.856;2024-02-04T02:46:28;17.85;;;11.23;;
85734;SDS011;76179;42.316;22.856;2024-02-04T02:48:53;18.20;;;11.75;;
85734;SDS011;76179;42.316;22.856;2024-02-04T02:51:19;20.08;;;11.65;;
85734;SDS011;76179;42.316;22.856;2024-02-04T02:53:44;19.08;;;10.15;;
85734;SDS011;76179;42.316;22.856;2024-02-04T02:56:10;19.05;;;10.88;;
85734;SDS011;76179;42.316;22.856;2024-02-04T02:58:35;13.93;;;9.38;;
85734;SDS011;76179;42.316;22.856;2024-02-04T03:01:01;16.23;;;8.93;;
85734;SDS011;76179;42.316;22.856;2024-02-04T03:03:26;15.73;;;8.52;;
85734;SDS011;76179;42.316;22.856;2024-02-04T03:05:52;13.73;;;8.88;;
85734;SDS011;76179;42.316;22.856;2024-02-04T03:08:17;14.73;;;9.50;;
85734;SDS011;76179;42.316;22.856;2024-02-04T03:10:43;16.42;;;9.32;;
85734;SDS011;76179;42.316;22.856;2024-02-04T03:13:08;20.33;;;10.13;;
85734;SDS011;76179;42.316;22.856;2024-02-04T03:15:33;15.35;;;9.25;;
85734;SDS011;76179;42.316;22.856;2024-02-04T03:17:59;15.00;;;9.00;;
85734;SDS011;76179;42.316;22.856;2024-02-04T03:20:24;15.80;;;10.70;;
85734;SDS011;76179;42.316;22.856;2024-02-04T03:22:49;15.15;;;10.05;;
85734;SDS011;76179;42.316;22.856;2024-02-04T03:25:15;16.83;;;9.10;;
85734;SDS011;76179;42.316;22.856;2024-02-04T03:27:40;16.55;;;9.13;;
85734;SDS011;76179;42.316;22.856;2024-02-04T03:30:06;14.43;;;10.45;;
85734;SDS011;76179;42.316;22.856;2024-02-04T03:32:31;17.70;;;8.60;;
85734;SDS011;76179;42.316;22.856;2024-02-04T03:34:59;16.75;;;10.45;;
85734;SDS011;76179;42.316;22.856;2024-02-04T03:37:26;18.50;;;10.77;;
85734;SDS011;76179;42.316;22.856;2024-02-04T03:39:51;17.23;;;9.82;;
85734;SDS011;76179;42.316;22.856;2024-02-04T03:42:16;18.25;;;9.52;;
85734;SDS011;76179;42.316;22.856;2024-02-04T03:44:43;15.52;;;8.70;;
85734;SDS011;76179;42.316;22.856;2024-02-04T03:47:09;17.05;;;8.95;;
85734;SDS011;76179;42.316;22.856;2024-02-04T03:49:34;18.45;;;9.05;;
85734;SDS011;76179;42.316;22.856;2024-02-04T03:51:59;17.00;;;8.98;;
85734;SDS011;76179;42.316;22.856;2024-02-04T03:54:25;14.63;;;9.43;;
85734;SDS011;76179;42.316;22.856;2024-02-04T03:56:50;20.60;;;9.63;;
85734;SDS011;76179;42.316;22.856;2024-02-04T03:59:16;18.25;;;10.65;;
85734;SDS011;76179;42.316;22.856;2024-02-04T04:01:46;17.20;;;8.80;;
85734;SDS011;76179;42.316;22.856;2024-02-04T04:04:12;18.38;;;10.23;;
85734;SDS011;76179;42.316;22.856;2024-02-04T04:06:37;18.50;;;8.95;;
85734;SDS011;76179;42.316;22.856;2024-02-04T04:09:03;15.82;;;8.40;;
85734;SDS011;76179;42.316;22.856;2024-02-04T04:11:28;17.88;;;10.15;;
85734;SDS011;76179;42.316;22.856;2024-02-04T04:13:53;20.08;;;12.05;;
85734;SDS011;76179;42.316;22.856;2024-02-04T04:16:22;21.40;;;10.93;;
85734;SDS011;76179;42.316;22.856;2024-02-04T04:18:47;16.35;;;8.88;;
85734;SDS011;76179;42.316;22.856;2024-02-04T04:21:13;19.05;;;12.20;;
85734;SDS011;76179;42.316;22.856;2024-02-04T04:23:38;22.83;;;12.70;;
85734;SDS011;76179;42.316;22.856;2024-02-04T04:26:04;20.23;;;11.15;;
85734;SDS011;76179;42.316;22.856;2024-02-04T04:28:30;21.65;;;10.80;;
85734;SDS011;76179;42.316;22.856;2024-02-04T04:30:55;18.45;;;10.00;;
85734;SDS011;76179;42.316;22.856;2024-02-04T04:33:21;16.00;;;9.60;;
85734;SDS011;76179;42.316;22.856;2024-02-04T04:35:47;17.15;;;9.70;;
85734;SDS011;76179;42.316;22.856;2024-02-04T04:38:12;15.27;;;9.95;;
85734;SDS011;76179;42.316;22.856;2024-02-04T04:40:38;18.52;;;10.05;;
85734;SDS011;76179;42.316;22.856;2024-02-04T04:43:05;15.95;;;9.65;;
85734;SDS011;76179;42.316;22.856;2024-02-04T04:45:31;16.92;;;10.73;;
85734;SDS011;76179;42.316;22.856;2024-02-04T04:47:56;19.73;;;10.65;;
85734;SDS011;76179;42.316;22.856;2024-02-04T04:50:22;19.23;;;10.32;;
85734;SDS011;76179;42.316;22.856;2024-02-04T04:52:47;16.63;;;8.65;;
85734;SDS011;76179;42.316;22.856;2024-02-04T04:55:12;16.73;;;8.80;;
85734;SDS011;76179;42.316;22.856;2024-02-04T04:57:38;19.02;;;10.45;;
85734;SDS011;76179;42.316;22.856;2024-02-04T05:00:04;16.20;;;10.00;;
85734;SDS011;76179;42.316;22.856;2024-02-04T05:02:32;15.35;;;8.95;;
85734;SDS011;76179;42.316;22.856;2024-02-04T05:04:57;15.98;;;8.35;;
85734;SDS011;76179;42.316;22.856;2024-02-04T05:07:23;12.38;;;8.35;;
85734;SDS011;76179;42.316;22.856;2024-02-04T05:09:48;13.77;;;9.57;;
85734;SDS011;76179;42.316;22.856;2024-02-04T05:12:13;16.08;;;8.82;;
85734;SDS011;76179;42.316;22.856;2024-02-04T05:14:39;15.48;;;9.60;;
85734;SDS011;76179;42.316;22.856;2024-02-04T05:17:04;14.45;;;9.38;;
85734;SDS011;76179;42.316;22.856;2024-02-04T05:19:30;16.25;;;8.15;;
85734;SDS011;76179;42.316;22.856;2024-02-04T05:21:56;13.85;;;9.20;;
85734;SDS011;76179;42.316;22.856;2024-02-04T05:24:21;19.80;;;11.00;;
85734;SDS011;76179;42.316;22.856;2024-02-04T05:26:47;19.73;;;11.05;;
85734;SDS011;76179;42.316;22.856;2024-02-04T05:29:12;15.27;;;9.98;;
85734;SDS011;76179;42.316;22.856;2024-02-04T05:31:41;14.38;;;8.77;;
85734;SDS011;76179;42.316;22.856;2024-02-04T05:34:07;17.90;;;9.05;;
85734;SDS011;76179;42.316;22.856;2024-02-04T05:36:33;19.38;;;10.32;;
85734;SDS011;76179;42.316;22.856;2024-02-04T05:39:08;15.18;;;10.68;;
85734;SDS011;76179;42.316;22.856;2024-02-04T05:41:39;18.33;;;9.52;;
85734;SDS011;76179;42.316;22.856;2024-02-04T05:44:05;15.38;;;9.20;;
85734;SDS011;76179;42.316;22.856;2024-02-04T05:46:33;17.75;;;11.27;;
85734;SDS011;76179;42.316;22.856;2024-02-04T05:48:59;17.10;;;10.77;;
85734;SDS011;76179;42.316;22.856;2024-02-04T05:51:25;15.05;;;9.23;;
85734;SDS011;76179;42.316;22.856;2024-02-04T05:53:50;18.65;;;9.98;;
85734;SDS011;76179;42.316;22.856;2024-02-04T05:56:15;21.38;;;12.25;;
85734;SDS011;76179;42.316;22.856;2024-02-04T05:58:41;17.17;;;10.52;;
85734;SDS011;76179;42.316;22.856;2024-02-04T06:01:06;18.67;;;11.68;;
85734;SDS011;76179;42.316;22.856;2024-02-04T06:03:32;19.40;;;11.68;;
85734;SDS011;76179;42.316;22.856;2024-02-04T06:05:58;20.33;;;10.52;;
85734;SDS011;76179;42.316;22.856;2024-02-04T06:08:23;17.45;;;10.98;;
85734;SDS011;76179;42.316;22.856;2024-02-04T06:10:48;18.58;;;10.35;;
85734;SDS011;76179;42.316;22.856;2024-02-04T06:13:14;21.25;;;11.27;;
85734;SDS011;76179;42.316;22.856;2024-02-04T06:15:39;20.92;;;12.15;;
85734;SDS011;76179;42.316;22.856;2024-02-04T06:18:05;20.75;;;12.57;;
85734;SDS011;76179;42.316;22.856;2024-02-04T06:20:30;20.77;;;11.93;;
85734;SDS011;76179;42.316;22.856;2024-02-04T06:22:55;16.00;;;9.63;;
85734;SDS011;76179;42.316;22.856;2024-02-04T06:25:22;19.02;;;10.77;;
85734;SDS011;76179;42.316;22.856;2024-02-04T06:27:48;20.67;;;10.60;;
85734;SDS011;76179;42.316;22.856;2024-02-04T06:30:13;19.92;;;12.25;;
85734;SDS011;76179;42.316;22.856;2024-02-04T06:32:39;24.25;;;13.70;;
85734;SDS011;76179;42.316;22.856;2024-02-04T06:35:04;23.15;;;14.18;;
85734;SDS011;76179;42.316;22.856;2024-02-04T06:37:30;25.50;;;14.40;;
85734;SDS011;76179;42.316;22.856;2024-02-04T06:39:55;24.83;;;15.20;;
85734;SDS011;76179;42.316;22.856;2024-02-04T06:42:21;33.08;;;18.58;;
85734;SDS011;76179;42.316;22.856;2024-02-04T06:44:46;53.25;;;28.55;;
85734;SDS011;76179;42.316;22.856;2024-02-04T06:47:12;44.40;;;24.58;;
85734;SDS011;76179;42.316;22.856;2024-02-04T06:49:39;51.88;;;26.23;;
85734;SDS011;76179;42.316;22.856;2024-02-04T06:52:05;61.05;;;32.80;;
85734;SDS011;76179;42.316;22.856;2024-02-04T06:54:30;72.28;;;38.95;;
85734;SDS011;76179;42.316;22.856;2024-02-04T06:56:55;50.88;;;29.33;;
85734;SDS011;76179;42.316;22.856;2024-02-04T06:59:21;53.45;;;30.67;;
85734;SDS011;76179;42.316;22.856;2024-02-04T07:01:46;56.47;;;31.48;;
85734;SDS011;76179;42.316;22.856;2024-02-04T07:04:12;50.20;;;28.45;;
85734;SDS011;76179;42.316;22.856;2024-02-04T07:06:37;47.90;;;26.88;;
85734;SDS011;76179;42.316;22.856;2024-02-04T07:09:03;38.60;;;17.65;;
85734;SDS011;76179;42.316;22.856;2024-02-04T07:11:28;28.85;;;17.42;;
85734;SDS011;76179;42.316;22.856;2024-02-04T07:13:54;36.20;;;24.60;;
85734;SDS011;76179;42.316;22.856;2024-02-04T07:18:53;34.30;;;23.40;;
85734;SDS011;76179;42.316;22.856;2024-02-04T07:21:19;29.83;;;19.80;;
85734;SDS011;76179;42.316;22.856;2024-02-04T07:23:44;32.47;;;19.35;;
85734;SDS011;76179;42.316;22.856;2024-02-04T07:26:10;31.52;;;20.13;;
85734;SDS011;76179;42.316;22.856;2024-02-04T07:28:37;28.50;;;15.00;;
85734;SDS011;76179;42.316;22.856;2024-02-04T07:31:02;26.13;;;14.65;;
85734;SDS011;76179;42.316;22.856;2024-02-04T07:33:27;23.17;;;15.40;;
85734;SDS011;76179;42.316;22.856;2024-02-04T07:35:53;23.02;;;14.10;;
85734;SDS011;76179;42.316;22.856;2024-02-04T07:38:18;32.90;;;16.58;;
85734;SDS011;76179;42.316;22.856;2024-02-04T07:40:44;39.45;;;22.63;;
85734;SDS011;76179;42.316;22.856;2024-02-04T07:43:09;63.50;;;29.60;;
85734;SDS011;76179;42.316;22.856;2024-02-04T07:45:34;52.97;;;26.58;;
85734;SDS011;76179;42.316;22.856;2024-02-04T07:48:00;36.72;;;23.20;;
85734;SDS011;76179;42.316;22.856;2024-02-04T07:50:27;43.50;;;21.23;;
85734;SDS011;76179;42.316;22.856;2024-02-04T07:52:52;21.90;;;12.88;;
85734;SDS011;76179;42.316;22.856;2024-02-04T07:55:18;25.83;;;14.40;;
85734;SDS011;76179;42.316;22.856;2024-02-04T07:57:43;22.88;;;13.27;;
85734;SDS011;76179;42.316;22.856;2024-02-04T08:00:10;17.02;;;9.70;;
85734;SDS011;76179;42.316;22.856;2024-02-04T08:02:36;26.50;;;14.13;;
85734;SDS011;76179;42.316;22.856;2024-02-04T08:05:02;16.60;;;10.90;;
85734;SDS011;76179;42.316;22.856;2024-02-04T08:07:28;20.10;;;11.63;;
85734;SDS011;76179;42.316;22.856;2024-02-04T08:09:54;21.63;;;13.70;;
85734;SDS011;76179;42.316;22.856;2024-02-04T08:12:19;16.10;;;10.73;;
85734;SDS011;76179;42.316;22.856;2024-02-04T08:14:45;14.00;;;9.10;;
85734;SDS011;76179;42.316;22.856;2024-02-04T08:17:10;14.88;;;10.32;;
85734;SDS011;76179;42.316;22.856;2024-02-04T08:19:35;16.17;;;10.32;;
85734;SDS011;76179;42.316;22.856;2024-02-04T08:22:01;26.33;;;21.63;;
85734;SDS011;76179;42.316;22.856;2024-02-04T08:24:26;14.32;;;9.73;;
85734;SDS011;76179;42.316;22.856;2024-02-04T08:26:52;15.50;;;10.10;;
85734;SDS011;76179;42.316;22.856;2024-02-04T08:29:18;16.13;;;9.57;;
85734;SDS011;76179;42.316;22.856;2024-02-04T08:31:43;17.65;;;12.27;;
85734;SDS011;76179;42.316;22.856;2024-02-04T08:34:08;16.95;;;9.40;;
85734;SDS011;76179;42.316;22.856;2024-02-04T08:36:34;17.92;;;10.57;;
85734;SDS011;76179;42.316;22.856;2024-02-04T08:38:59;17.38;;;10.20;;
85734;SDS011;76179;42.316;22.856;2024-02-04T08:41:24;17.48;;;10.05;;
85734;SDS011;76179;42.316;22.856;2024-02-04T08:43:51;15.90;;;9.50;;
85734;SDS011;76179;42.316;22.856;2024-02-04T08:46:17;15.60;;;9.43;;
85734;SDS011;76179;42.316;22.856;2024-02-04T08:48:42;93.88;;;53.97;;
85734;SDS011;76179;42.316;22.856;2024-02-04T08:51:11;16.80;;;10.43;;
85734;SDS011;76179;42.316;22.856;2024-02-04T08:53:38;13.75;;;8.05;;
85734;SDS011;76179;42.316;22.856;2024-02-04T08:56:05;16.23;;;8.95;;
85734;SDS011;76179;42.316;22.856;2024-02-04T08:58:31;17.95;;;12.32;;
85734;SDS011;76179;42.316;22.856;2024-02-04T09:00:56;18.92;;;10.27;;
85734;SDS011;76179;42.316;22.856;2024-02-04T09:03:22;12.32;;;7.40;;
85734;SDS011;76179;42.316;22.856;2024-02-04T09:05:48;13.13;;;9.15;;
85734;SDS011;76179;42.316;22.856;2024-02-04T09:08:13;13.80;;;8.93;;
85734;SDS011;76179;42.316;22.856;2024-02-04T09:10:39;11.40;;;6.40;;
85734;SDS011;76179;42.316;22.856;2024-02-04T09:13:04;11.65;;;6.57;;
85734;SDS011;76179;42.316;22.856;2024-02-04T09:15:30;9.15;;;5.22;;
85734;SDS011;76179;42.316;22.856;2024-02-04T09:17:55;10.77;;;6.10;;
85734;SDS011;76179;42.316;22.856;2024-02-04T09:20:20;9.85;;;5.80;;
85734;SDS011;76179;42.316;22.856;2024-02-04T09:22:46;12.30;;;5.25;;
85734;SDS011;76179;42.316;22.856;2024-02-04T09:25:11;10.68;;;6.65;;
85734;SDS011;76179;42.316;22.856;2024-02-04T09:27:36;7.78;;;3.90;;
85734;SDS011;76179;42.316;22.856;2024-02-04T09:30:02;10.95;;;5.85;;
85734;SDS011;76179;42.316;22.856;2024-02-04T09:32:28;8.10;;;4.80;;
85734;SDS011;76179;42.316;22.856;2024-02-04T09:34:53;7.90;;;5.10;;
85734;SDS011;76179;42.316;22.856;2024-02-04T09:37:19;14.38;;;6.88;;
85734;SDS011;76179;42.316;22.856;2024-02-04T09:39:44;9.65;;;5.30;;
85734;SDS011;76179;42.316;22.856;2024-02-04T09:42:10;12.07;;;4.43;;
85734;SDS011;76179;42.316;22.856;2024-02-04T09:44:45;10.13;;;4.85;;
85734;SDS011;76179;42.316;22.856;2024-02-04T09:47:12;7.95;;;4.57;;
85734;SDS011;76179;42.316;22.856;2024-02-04T09:49:38;10.95;;;6.85;;
85734;SDS011;76179;42.316;22.856;2024-02-04T09:52:06;9.70;;;6.18;;
85734;SDS011;76179;42.316;22.856;2024-02-04T09:57:19;10.07;;;6.78;;
85734;SDS011;76179;42.316;22.856;2024-02-04T09:59:44;9.70;;;4.53;;
85734;SDS011;76179;42.316;22.856;2024-02-04T10:02:10;10.15;;;6.50;;
85734;SDS011;76179;42.316;22.856;2024-02-04T10:04:35;55.67;;;39.17;;
85734;SDS011;76179;42.316;22.856;2024-02-04T10:07:01;8.32;;;4.78;;
85734;SDS011;76179;42.316;22.856;2024-02-04T10:09:27;19.83;;;16.83;;
85734;SDS011;76179;42.316;22.856;2024-02-04T10:11:53;6.55;;;2.20;;
85734;SDS011;76179;42.316;22.856;2024-02-04T10:14:18;8.38;;;6.03;;
85734;SDS011;76179;42.316;22.856;2024-02-04T10:16:45;7.43;;;4.40;;
85734;SDS011;76179;42.316;22.856;2024-02-04T10:19:11;4.50;;;2.53;;
85734;SDS011;76179;42.316;22.856;2024-02-04T10:21:37;5.95;;;3.10;;
85734;SDS011;76179;42.316;22.856;2024-02-04T10:24:02;6.25;;;3.17;;
85734;SDS011;76179;42.316;22.856;2024-02-04T10:26:30;5.47;;;1.83;;
85734;SDS011;76179;42.316;22.856;2024-02-04T10:28:57;5.45;;;2.67;;
85734;SDS011;76179;42.316;22.856;2024-02-04T10:31:23;4.07;;;1.98;;
85734;SDS011;76179;42.316;22.856;2024-02-04T10:33:50;4.88;;;1.80;;
85734;SDS011;76179;42.316;22.856;2024-02-04T10:36:15;5.97;;;2.55;;
85734;SDS011;76179;42.316;22.856;2024-02-04T10:38:41;6.45;;;3.70;;
85734;SDS011;76179;42.316;22.856;2024-02-04T10:41:07;6.18;;;2.78;;
85734;SDS011;76179;42.316;22.856;2024-02-04T10:43:32;3.60;;;2.28;;
85734;SDS011;76179;42.316;22.856;2024-02-04T10:46:01;3.22;;;1.65;;
85734;SDS011;76179;42.316;22.856;2024-02-04T10:48:32;3.85;;;1.60;;
85734;SDS011;76179;42.316;22.856;2024-02-04T10:51:07;4.18;;;2.00;;
85734;SDS011;76179;42.316;22.856;2024-02-04T10:53:38;6.00;;;2.28;;
85734;SDS011;76179;42.316;22.856;2024-02-04T10:56:07;5.22;;;2.28;;
85734;SDS011;76179;42.316;22.856;2024-02-04T10:58:43;3.80;;;1.52;;
85734;SDS011;76179;42.316;22.856;2024-02-04T11:01:10;3.53;;;1.52;;
85734;SDS011;76179;42.316;22.856;2024-02-04T11:03:35;2.53;;;1.13;;
85734;SDS011;76179;42.316;22.856;2024-02-04T11:06:01;3.55;;;1.52;;
85734;SDS011;76179;42.316;22.856;2024-02-04T11:08:27;3.58;;;1.77;;
85734;SDS011;76179;42.316;22.856;2024-02-04T11:10:53;3.10;;;1.80;;
85734;SDS011;76179;42.316;22.856;2024-02-04T11:13:19;2.40;;;1.27;;
85734;SDS011;76179;42.316;22.856;2024-02-04T11:15:47;2.22;;;1.20;;
85734;SDS011;76179;42.316;22.856;2024-02-04T11:26:52;7.18;;;5.25;;
85734;SDS011;76179;42.316;22.856;2024-02-04T11:29:18;2.60;;;0.93;;
85734;SDS011;76179;42.316;22.856;2024-02-04T11:31:43;6.65;;;1.38;;
85734;SDS011;76179;42.316;22.856;2024-02-04T11:34:09;2.40;;;1.08;;
85734;SDS011;76179;42.316;22.856;2024-02-04T11:36:38;3.70;;;1.73;;
85734;SDS011;76179;42.316;22.856;2024-02-04T11:39:14;11.02;;;9.25;;
85734;SDS011;76179;42.316;22.856;2024-02-04T11:41:46;3.90;;;1.55;;
85734;SDS011;76179;42.316;22.856;2024-02-04T11:44:12;3.83;;;1.70;;
85734;SDS011;76179;42.316;22.856;2024-02-04T11:46:38;10.13;;;6.95;;
85734;SDS011;76179;42.316;22.856;2024-02-04T11:49:03;4.03;;;2.35;;
85734;SDS011;76179;42.316;22.856;2024-02-04T11:51:39;3.67;;;2.40;;
85734;SDS011;76179;42.316;22.856;2024-02-04T11:54:04;3.03;;;1.13;;
85734;SDS011;76179;42.316;22.856;2024-02-04T11:56:30;6.13;;;2.47;;
85734;SDS011;76179;42.316;22.856;2024-02-04T11:58:57;2.72;;;0.98;;
85734;SDS011;76179;42.316;22.856;2024-02-04T12:01:24;4.22;;;1.50;;
85734;SDS011;76179;42.316;22.856;2024-02-04T12:03:49;2.65;;;1.23;;
85734;SDS011;76179;42.316;22.856;2024-02-04T12:06:16;2.25;;;1.23;;
85734;SDS011;76179;42.316;22.856;2024-02-04T12:08:41;2.10;;;1.00;;
85734;SDS011;76179;42.316;22.856;2024-02-04T12:11:07;2.60;;;0.90;;
85734;SDS011;76179;42.316;22.856;2024-02-04T12:13:33;2.95;;;1.13;;
85734;SDS011;76179;42.316;22.856;2024-02-04T12:16:03;3.65;;;2.22;;
85734;SDS011;76179;42.316;22.856;2024-02-04T12:18:30;3.15;;;2.15;;
85734;SDS011;76179;42.316;22.856;2024-02-04T12:20:55;3.38;;;1.65;;
85734;SDS011;76179;42.316;22.856;2024-02-04T12:23:21;3.20;;;1.17;;
85734;SDS011;76179;42.316;22.856;2024-02-04T12:25:48;5.22;;;2.00;;
85734;SDS011;76179;42.316;22.856;2024-02-04T12:28:14;4.82;;;2.50;;
85734;SDS011;76179;42.316;22.856;2024-02-04T12:30:40;3.03;;;1.02;;
85734;SDS011;76179;42.316;22.856;2024-02-04T12:33:05;4.85;;;1.55;;
85734;SDS011;76179;42.316;22.856;2024-02-04T12:35:31;3.38;;;1.98;;
85734;SDS011;76179;42.316;22.856;2024-02-04T12:37:57;3.03;;;2.08;;
85734;SDS011;76179;42.316;22.856;2024-02-04T12:40:30;3.70;;;2.08;;
85734;SDS011;76179;42.316;22.856;2024-02-04T12:42:56;2.88;;;1.52;;
85734;SDS011;76179;42.316;22.856;2024-02-04T12:45:23;4.00;;;2.00;;
85734;SDS011;76179;42.316;22.856;2024-02-04T12:47:50;7.63;;;3.30;;
85734;SDS011;76179;42.316;22.856;2024-02-04T12:50:17;8.20;;;2.75;;
85734;SDS011;76179;42.316;22.856;2024-02-04T12:52:44;8.48;;;2.90;;
85734;SDS011;76179;42.316;22.856;2024-02-04T12:55:19;7.30;;;3.40;;
85734;SDS011;76179;42.316;22.856;2024-02-04T12:57:48;3.38;;;1.52;;
85734;SDS011;76179;42.316;22.856;2024-02-04T13:00:17;2.70;;;1.17;;
85734;SDS011;76179;42.316;22.856;2024-02-04T13:02:43;3.80;;;1.33;;
85734;SDS011;76179;42.316;22.856;2024-02-04T13:05:08;5.07;;;2.28;;
85734;SDS011;76179;42.316;22.856;2024-02-04T13:07:34;19.10;;;15.65;;
85734;SDS011;76179;42.316;22.856;2024-02-04T13:09:59;10.57;;;8.13;;
85734;SDS011;76179;42.316;22.856;2024-02-04T13:12:25;3.47;;;1.92;;
85734;SDS011;76179;42.316;22.856;2024-02-04T13:14:51;4.85;;;1.58;;
85734;SDS011;76179;42.316;22.856;2024-02-04T13:17:16;3.30;;;1.17;;
85734;SDS011;76179;42.316;22.856;2024-02-04T13:19:41;3.75;;;1.73;;
85734;SDS011;76179;42.316;22.856;2024-02-04T13:22:08;3.65;;;1.48;;
85734;SDS011;76179;42.316;22.856;2024-02-04T13:24:38;6.68;;;2.42;;
85734;SDS011;76179;42.316;22.856;2024-02-04T13:27:04;5.03;;;1.83;;
85734;SDS011;76179;42.316;22.856;2024-02-04T13:29:32;3.85;;;1.23;;
85734;SDS011;76179;42.316;22.856;2024-02-04T13:31:58;3.53;;;1.63;;
85734;SDS011;76179;42.316;22.856;2024-02-04T13:34:23;3.28;;;1.52;;
85734;SDS011;76179;42.316;22.856;2024-02-04T13:36:48;2.63;;;0.85;;
85734;SDS011;76179;42.316;22.856;2024-02-04T13:39:14;3.70;;;1.17;;
85734;SDS011;76179;42.316;22.856;2024-02-04T13:41:40;3.67;;;2.63;;
85734;SDS011;76179;42.316;22.856;2024-02-04T13:44:05;3.47;;;1.17;;
85734;SDS011;76179;42.316;22.856;2024-02-04T13:46:31;5.88;;;2.28;;
85734;SDS011;76179;42.316;22.856;2024-02-04T13:48:57;4.03;;;1.92;;
85734;SDS011;76179;42.316;22.856;2024-02-04T13:51:22;2.65;;;1.17;;
85734;SDS011;76179;42.316;22.856;2024-02-04T13:53:48;3.17;;;1.27;;
85734;SDS011;76179;42.316;22.856;2024-02-04T13:56:13;4.35;;;1.35;;
85734;SDS011;76179;42.316;22.856;2024-02-04T13:58:38;6.93;;;2.17;;
85734;SDS011;76179;42.316;22.856;2024-02-04T14:01:04;3.17;;;1.45;;
85734;SDS011;76179;42.316;22.856;2024-02-04T14:03:29;2.95;;;0.98;;
85734;SDS011;76179;42.316;22.856;2024-02-04T14:05:54;2.97;;;1.85;;
85734;SDS011;76179;42.316;22.856;2024-02-04T14:08:20;4.82;;;1.70;;
85734;SDS011;76179;42.316;22.856;2024-02-04T14:10:46;5.78;;;2.85;;
85734;SDS011;76179;42.316;22.856;2024-02-04T14:13:12;6.03;;;2.30;;
85734;SDS011;76179;42.316;22.856;2024-02-04T14:15:37;5.63;;;1.65;;
85734;SDS011;76179;42.316;22.856;2024-02-04T14:18:03;9.25;;;1.70;;
85734;SDS011;76179;42.316;22.856;2024-02-04T14:20:29;4.60;;;1.35;;
85734;SDS011;76179;42.316;22.856;2024-02-04T14:22:54;4.03;;;1.08;;
85734;SDS011;76179;42.316;22.856;2024-02-04T14:25:21;2.97;;;1.33;;
85734;SDS011;76179;42.316;22.856;2024-02-04T14:27:46;6.03;;;1.38;;
85734;SDS011;76179;42.316;22.856;2024-02-04T14:30:12;3.65;;;2.13;;
85734;SDS011;76179;42.316;22.856;2024-02-04T14:32:38;7.07;;;1.73;;
85734;SDS011;76179;42.316;22.856;2024-02-04T14:35:03;3.58;;;1.35;;
85734;SDS011;76179;42.316;22.856;2024-02-04T14:37:29;3.15;;;1.48;;